sensor_id;sensor_type;location;lat;lon;timestamp;P1;durP1;ratioP1;P2;durP2;ratioP2
3131;SDS011;62090;52.330;9.104;2022-10-16T00:01:32;2.60;;;1.10;;
3131;SDS011;62090;52.330;9.104;2022-10-16T00:04:02;1.90;;;1.10;;
3131;SDS011;62090;52.330;9.104;2022-10-16T00:06:35;3.40;;;1.33;;
3131;SDS011;62090;52.330;9.104;2022-10-16T00:09:05;2.13;;;1.53;;
3131;SDS011;62090;52.330;9.104;2022-10-16T00:11:37;2.63;;;1.33;;
3131;SDS011;62090;52.330;9.104;2022-10-16T00:14:09;3.50;;;1.57;;
3131;SDS011;62090;52.330;9.104;2022-10-16T00:16:41;1.60;;;1.37;;
3131;SDS011;62090;52.330;9.104;2022-10-16T00:19:11;4.93;;;1.67;;
3131;SDS011;62090;52.330;9.104;2022-10-16T00:21:44;3.47;;;1.50;;
3131;SDS011;62090;52.330;9.104;2022-10-16T00:24:33;4.10;;;1.60;;
3131;SDS011;62090;52.330;9.104;2022-10-16T00:27:03;2.20;;;1.60;;
3131;SDS011;62090;52.330;9.104;2022-10-16T00:29:32;5.27;;;1.80;;
3131;SDS011;62090;52.330;9.104;2022-10-16T00:32:02;7.23;;;1.87;;
3131;SDS011;62090;52.330;9.104;2022-10-16T00:34:32;3.00;;;1.80;;
3131;SDS011;62090;52.330;9.104;2022-10-16T00:37:05;6.60;;;2.50;;
3131;SDS011;62090;52.330;9.104;2022-10-16T00:39:34;4.87;;;2.30;;
3131;SDS011;62090;52.330;9.104;2022-10-16T00:42:04;4.13;;;2.30;;
3131;SDS011;62090;52.330;9.104;2022-10-16T00:44:42;5.30;;;2.27;;
3131;SDS011;62090;52.330;9.104;2022-10-16T00:47:16;4.40;;;2.27;;
3131;SDS011;62090;52.330;9.104;2022-10-16T00:49:50;5.50;;;3.07;;
3131;SDS011;62090;52.330;9.104;2022-10-16T00:52:24;2.80;;;2.20;;
3131;SDS011;62090;52.330;9.104;2022-10-16T00:54:54;6.10;;;2.43;;
3131;SDS011;62090;52.330;9.104;2022-10-16T00:57:26;5.23;;;2.60;;
3131;SDS011;62090;52.330;9.104;2022-10-16T00:59:56;3.53;;;2.40;;
3131;SDS011;62090;52.330;9.104;2022-10-16T01:02:26;4.63;;;2.80;;
3131;SDS011;62090;52.330;9.104;2022-10-16T01:04:56;7.00;;;3.50;;
3131;SDS011;62090;52.330;9.104;2022-10-16T01:07:33;5.60;;;3.00;;
3131;SDS011;62090;52.330;9.104;2022-10-16T01:10:14;5.37;;;3.10;;
3131;SDS011;62090;52.330;9.104;2022-10-16T01:12:54;5.70;;;2.83;;
3131;SDS011;62090;52.330;9.104;2022-10-16T01:15:29;5.70;;;3.10;;
3131;SDS011;62090;52.330;9.104;2022-10-16T01:18:24;5.40;;;3.13;;
3131;SDS011;62090;52.330;9.104;2022-10-16T01:21:01;7.47;;;2.67;;
3131;SDS011;62090;52.330;9.104;2022-10-16T01:23:41;6.10;;;2.47;;
3131;SDS011;62090;52.330;9.104;2022-10-16T01:26:26;7.40;;;3.07;;
3131;SDS011;62090;52.330;9.104;2022-10-16T01:29:08;5.60;;;2.97;;
3131;SDS011;62090;52.330;9.104;2022-10-16T01:31:44;3.90;;;2.97;;
3131;SDS011;62090;52.330;9.104;2022-10-16T01:34:20;10.90;;;3.50;;
3131;SDS011;62090;52.330;9.104;2022-10-16T01:36:55;8.70;;;2.80;;
3131;SDS011;62090;52.330;9.104;2022-10-16T01:39:32;10.07;;;3.07;;
3131;SDS011;62090;52.330;9.104;2022-10-16T01:42:06;10.10;;;3.47;;
3131;SDS011;62090;52.330;9.104;2022-10-16T01:44:43;4.97;;;3.43;;
3131;SDS011;62090;52.330;9.104;2022-10-16T01:47:14;12.23;;;3.87;;
3131;SDS011;62090;52.330;9.104;2022-10-16T01:49:46;4.67;;;3.20;;
3131;SDS011;62090;52.330;9.104;2022-10-16T01:52:18;10.20;;;3.27;;
3131;SDS011;62090;52.330;9.104;2022-10-16T01:54:53;6.47;;;2.77;;
3131;SDS011;62090;52.330;9.104;2022-10-16T01:57:26;5.63;;;3.10;;
3131;SDS011;62090;52.330;9.104;2022-10-16T02:00:05;15.10;;;3.20;;
3131;SDS011;62090;52.330;9.104;2022-10-16T02:02:38;7.73;;;2.87;;
3131;SDS011;62090;52.330;9.104;2022-10-16T02:05:12;8.20;;;2.90;;
3131;SDS011;62090;52.330;9.104;2022-10-16T02:07:45;12.73;;;3.50;;
3131;SDS011;62090;52.330;9.104;2022-10-16T02:10:16;10.67;;;3.30;;
3131;SDS011;62090;52.330;9.104;2022-10-16T02:12:48;10.00;;;2.97;;
3131;SDS011;62090;52.330;9.104;2022-10-16T02:15:23;11.30;;;2.40;;
3131;SDS011;62090;52.330;9.104;2022-10-16T02:17:53;6.43;;;2.63;;
3131;SDS011;62090;52.330;9.104;2022-10-16T02:20:24;5.33;;;3.17;;
3131;SDS011;62090;52.330;9.104;2022-10-16T02:22:56;4.30;;;2.47;;
3131;SDS011;62090;52.330;9.104;2022-10-16T02:25:29;18.47;;;3.10;;
3131;SDS011;62090;52.330;9.104;2022-10-16T02:28:01;7.20;;;3.30;;
3131;SDS011;62090;52.330;9.104;2022-10-16T02:30:39;7.00;;;2.70;;
3131;SDS011;62090;52.330;9.104;2022-10-16T02:33:15;7.53;;;3.30;;
3131;SDS011;62090;52.330;9.104;2022-10-16T02:35:46;8.10;;;3.30;;
3131;SDS011;62090;52.330;9.104;2022-10-16T02:38:19;5.50;;;2.97;;
3131;SDS011;62090;52.330;9.104;2022-10-16T02:40:50;5.10;;;3.20;;
3131;SDS011;62090;52.330;9.104;2022-10-16T02:43:20;6.67;;;3.43;;
3131;SDS011;62090;52.330;9.104;2022-10-16T02:45:53;8.97;;;3.93;;
3131;SDS011;62090;52.330;9.104;2022-10-16T02:48:23;9.13;;;3.80;;
3131;SDS011;62090;52.330;9.104;2022-10-16T02:50:52;15.47;;;3.77;;
3131;SDS011;62090;52.330;9.104;2022-10-16T02:53:23;10.73;;;4.10;;
3131;SDS011;62090;52.330;9.104;2022-10-16T02:55:53;5.87;;;3.20;;
3131;SDS011;62090;52.330;9.104;2022-10-16T02:58:23;8.90;;;3.40;;
3131;SDS011;62090;52.330;9.104;2022-10-16T03:00:55;13.00;;;3.40;;
3131;SDS011;62090;52.330;9.104;2022-10-16T03:03:25;5.70;;;3.67;;
3131;SDS011;62090;52.330;9.104;2022-10-16T03:05:55;7.30;;;3.37;;
3131;SDS011;62090;52.330;9.104;2022-10-16T03:08:24;8.70;;;4.17;;
3131;SDS011;62090;52.330;9.104;2022-10-16T03:10:54;12.80;;;3.70;;
3131;SDS011;62090;52.330;9.104;2022-10-16T03:13:26;9.73;;;4.43;;
3131;SDS011;62090;52.330;9.104;2022-10-16T03:15:59;9.40;;;3.00;;
3131;SDS011;62090;52.330;9.104;2022-10-16T03:18:29;7.17;;;3.40;;
3131;SDS011;62090;52.330;9.104;2022-10-16T03:20:58;7.70;;;2.97;;
3131;SDS011;62090;52.330;9.104;2022-10-16T03:23:29;8.07;;;3.63;;
3131;SDS011;62090;52.330;9.104;2022-10-16T03:25:59;11.60;;;4.07;;
3131;SDS011;62090;52.330;9.104;2022-10-16T03:28:28;6.87;;;3.67;;
3131;SDS011;62090;52.330;9.104;2022-10-16T03:31:01;9.43;;;4.20;;
3131;SDS011;62090;52.330;9.104;2022-10-16T03:33:31;7.17;;;4.33;;
3131;SDS011;62090;52.330;9.104;2022-10-16T03:36:00;11.37;;;3.83;;
3131;SDS011;62090;52.330;9.104;2022-10-16T03:38:30;11.70;;;3.93;;
3131;SDS011;62090;52.330;9.104;2022-10-16T03:41:00;8.50;;;4.47;;
3131;SDS011;62090;52.330;9.104;2022-10-16T03:43:30;9.20;;;4.27;;
3131;SDS011;62090;52.330;9.104;2022-10-16T03:46:02;6.07;;;4.13;;
3131;SDS011;62090;52.330;9.104;2022-10-16T03:48:32;9.23;;;4.53;;
3131;SDS011;62090;52.330;9.104;2022-10-16T03:51:02;9.87;;;4.20;;
3131;SDS011;62090;52.330;9.104;2022-10-16T03:53:32;11.87;;;4.63;;
3131;SDS011;62090;52.330;9.104;2022-10-16T03:56:02;12.40;;;4.27;;
3131;SDS011;62090;52.330;9.104;2022-10-16T03:58:32;9.03;;;4.57;;
3131;SDS011;62090;52.330;9.104;2022-10-16T04:01:04;11.40;;;4.30;;
3131;SDS011;62090;52.330;9.104;2022-10-16T04:03:34;7.43;;;4.40;;
3131;SDS011;62090;52.330;9.104;2022-10-16T04:06:04;11.27;;;4.17;;
3131;SDS011;62090;52.330;9.104;2022-10-16T04:08:35;8.77;;;4.10;;
3131;SDS011;62090;52.330;9.104;2022-10-16T04:11:05;9.73;;;4.10;;
3131;SDS011;62090;52.330;9.104;2022-10-16T04:13:35;6.07;;;4.40;;
3131;SDS011;62090;52.330;9.104;2022-10-16T04:16:08;7.77;;;4.40;;
3131;SDS011;62090;52.330;9.104;2022-10-16T04:18:38;9.33;;;4.40;;
3131;SDS011;62090;52.330;9.104;2022-10-16T04:21:08;8.93;;;4.07;;
3131;SDS011;62090;52.330;9.104;2022-10-16T04:23:38;8.40;;;4.13;;
3131;SDS011;62090;52.330;9.104;2022-10-16T04:26:07;6.77;;;4.20;;
3131;SDS011;62090;52.330;9.104;2022-10-16T04:28:37;14.83;;;3.67;;
3131;SDS011;62090;52.330;9.104;2022-10-16T04:31:10;12.23;;;3.70;;
3131;SDS011;62090;52.330;9.104;2022-10-16T04:33:41;7.17;;;3.53;;
3131;SDS011;62090;52.330;9.104;2022-10-16T04:36:12;5.90;;;3.60;;
3131;SDS011;62090;52.330;9.104;2022-10-16T04:38:42;7.10;;;4.07;;
3131;SDS011;62090;52.330;9.104;2022-10-16T04:41:12;4.77;;;3.20;;
3131;SDS011;62090;52.330;9.104;2022-10-16T04:43:42;10.73;;;4.00;;
3131;SDS011;62090;52.330;9.104;2022-10-16T04:46:14;6.70;;;3.40;;
3131;SDS011;62090;52.330;9.104;2022-10-16T04:48:44;5.73;;;3.40;;
3131;SDS011;62090;52.330;9.104;2022-10-16T04:51:14;12.93;;;3.70;;
3131;SDS011;62090;52.330;9.104;2022-10-16T04:53:45;6.80;;;4.17;;
3131;SDS011;62090;52.330;9.104;2022-10-16T04:56:15;14.07;;;3.67;;
3131;SDS011;62090;52.330;9.104;2022-10-16T04:58:44;9.20;;;3.30;;
3131;SDS011;62090;52.330;9.104;2022-10-16T05:01:17;11.17;;;3.17;;
3131;SDS011;62090;52.330;9.104;2022-10-16T05:03:47;7.57;;;2.90;;
3131;SDS011;62090;52.330;9.104;2022-10-16T05:06:16;9.53;;;2.77;;
3131;SDS011;62090;52.330;9.104;2022-10-16T05:08:46;5.50;;;3.17;;
3131;SDS011;62090;52.330;9.104;2022-10-16T05:11:16;14.00;;;2.70;;
3131;SDS011;62090;52.330;9.104;2022-10-16T05:13:46;9.20;;;2.70;;
3131;SDS011;62090;52.330;9.104;2022-10-16T05:16:23;9.37;;;3.00;;
3131;SDS011;62090;52.330;9.104;2022-10-16T05:18:53;4.20;;;2.13;;
3131;SDS011;62090;52.330;9.104;2022-10-16T05:21:43;6.53;;;2.73;;
3131;SDS011;62090;52.330;9.104;2022-10-16T05:24:13;4.83;;;2.50;;
3131;SDS011;62090;52.330;9.104;2022-10-16T05:26:43;4.37;;;2.77;;
3131;SDS011;62090;52.330;9.104;2022-10-16T05:29:13;4.40;;;2.97;;
3131;SDS011;62090;52.330;9.104;2022-10-16T05:31:46;3.57;;;2.40;;
3131;SDS011;62090;52.330;9.104;2022-10-16T05:34:15;9.43;;;3.60;;
3131;SDS011;62090;52.330;9.104;2022-10-16T05:36:45;6.20;;;2.93;;
3131;SDS011;62090;52.330;9.104;2022-10-16T05:39:15;4.73;;;2.50;;
3131;SDS011;62090;52.330;9.104;2022-10-16T05:41:45;7.90;;;2.67;;
3131;SDS011;62090;52.330;9.104;2022-10-16T05:44:15;6.10;;;2.30;;
3131;SDS011;62090;52.330;9.104;2022-10-16T05:46:48;4.07;;;2.40;;
3131;SDS011;62090;52.330;9.104;2022-10-16T05:49:18;2.67;;;2.10;;
3131;SDS011;62090;52.330;9.104;2022-10-16T05:51:47;5.43;;;1.77;;
3131;SDS011;62090;52.330;9.104;2022-10-16T05:54:18;5.30;;;2.67;;
3131;SDS011;62090;52.330;9.104;2022-10-16T05:56:48;2.40;;;2.20;;
3131;SDS011;62090;52.330;9.104;2022-10-16T05:59:18;7.63;;;2.30;;
3131;SDS011;62090;52.330;9.104;2022-10-16T06:01:50;4.10;;;2.10;;
3131;SDS011;62090;52.330;9.104;2022-10-16T06:04:20;2.27;;;1.67;;
3131;SDS011;62090;52.330;9.104;2022-10-16T06:06:49;3.63;;;1.80;;
3131;SDS011;62090;52.330;9.104;2022-10-16T06:09:19;5.30;;;2.03;;
3131;SDS011;62090;52.330;9.104;2022-10-16T06:11:49;3.93;;;2.00;;
3131;SDS011;62090;52.330;9.104;2022-10-16T06:14:19;8.57;;;1.90;;
3131;SDS011;62090;52.330;9.104;2022-10-16T06:16:51;4.83;;;1.77;;
3131;SDS011;62090;52.330;9.104;2022-10-16T06:19:21;5.13;;;1.83;;
3131;SDS011;62090;52.330;9.104;2022-10-16T06:21:51;3.43;;;1.50;;
3131;SDS011;62090;52.330;9.104;2022-10-16T06:24:22;6.07;;;1.80;;
3131;SDS011;62090;52.330;9.104;2022-10-16T06:26:53;3.17;;;2.03;;
3131;SDS011;62090;52.330;9.104;2022-10-16T06:29:24;4.60;;;1.53;;
3131;SDS011;62090;52.330;9.104;2022-10-16T06:31:56;3.97;;;1.50;;
3131;SDS011;62090;52.330;9.104;2022-10-16T06:34:26;4.03;;;1.63;;
3131;SDS011;62090;52.330;9.104;2022-10-16T06:36:57;3.93;;;1.50;;
3131;SDS011;62090;52.330;9.104;2022-10-16T06:39:28;4.53;;;1.63;;
3131;SDS011;62090;52.330;9.104;2022-10-16T06:41:59;2.53;;;1.50;;
3131;SDS011;62090;52.330;9.104;2022-10-16T06:44:35;2.70;;;1.70;;
3131;SDS011;62090;52.330;9.104;2022-10-16T06:47:09;5.03;;;1.70;;
3131;SDS011;62090;52.330;9.104;2022-10-16T06:49:40;3.03;;;1.50;;
3131;SDS011;62090;52.330;9.104;2022-10-16T06:52:10;1.53;;;1.17;;
3131;SDS011;62090;52.330;9.104;2022-10-16T06:54:40;3.57;;;1.50;;
3131;SDS011;62090;52.330;9.104;2022-10-16T06:57:10;3.70;;;1.40;;
3131;SDS011;62090;52.330;9.104;2022-10-16T06:59:40;2.03;;;1.30;;
3131;SDS011;62090;52.330;9.104;2022-10-16T07:02:15;3.60;;;1.37;;
3131;SDS011;62090;52.330;9.104;2022-10-16T07:04:45;3.53;;;1.30;;
3131;SDS011;62090;52.330;9.104;2022-10-16T07:07:15;2.00;;;1.10;;
3131;SDS011;62090;52.330;9.104;2022-10-16T07:09:44;3.40;;;1.37;;
3131;SDS011;62090;52.330;9.104;2022-10-16T07:12:14;2.33;;;1.10;;
3131;SDS011;62090;52.330;9.104;2022-10-16T07:14:44;1.63;;;1.13;;
3131;SDS011;62090;52.330;9.104;2022-10-16T07:17:18;1.73;;;1.20;;
3131;SDS011;62090;52.330;9.104;2022-10-16T07:19:48;4.17;;;1.37;;
3131;SDS011;62090;52.330;9.104;2022-10-16T07:22:20;1.77;;;1.20;;
3131;SDS011;62090;52.330;9.104;2022-10-16T07:24:51;1.17;;;0.90;;
3131;SDS011;62090;52.330;9.104;2022-10-16T07:27:22;3.33;;;1.10;;
3131;SDS011;62090;52.330;9.104;2022-10-16T07:29:53;3.90;;;1.10;;
3131;SDS011;62090;52.330;9.104;2022-10-16T07:32:25;1.43;;;0.87;;
3131;SDS011;62090;52.330;9.104;2022-10-16T07:34:55;1.93;;;1.20;;
3131;SDS011;62090;52.330;9.104;2022-10-16T07:37:25;1.17;;;0.90;;
3131;SDS011;62090;52.330;9.104;2022-10-16T07:39:56;4.77;;;1.67;;
3131;SDS011;62090;52.330;9.104;2022-10-16T07:42:27;3.30;;;1.00;;
3131;SDS011;62090;52.330;9.104;2022-10-16T07:44:58;4.73;;;1.20;;
3131;SDS011;62090;52.330;9.104;2022-10-16T07:47:30;1.20;;;1.10;;
3131;SDS011;62090;52.330;9.104;2022-10-16T07:50:01;3.57;;;1.50;;
3131;SDS011;62090;52.330;9.104;2022-10-16T07:52:32;1.47;;;0.90;;
3131;SDS011;62090;52.330;9.104;2022-10-16T07:55:02;5.20;;;0.90;;
3131;SDS011;62090;52.330;9.104;2022-10-16T07:57:33;1.53;;;1.10;;
3131;SDS011;62090;52.330;9.104;2022-10-16T08:00:04;1.40;;;1.10;;
3131;SDS011;62090;52.330;9.104;2022-10-16T08:02:42;1.37;;;1.23;;
3131;SDS011;62090;52.330;9.104;2022-10-16T08:05:12;2.47;;;1.23;;
3131;SDS011;62090;52.330;9.104;2022-10-16T08:07:42;2.73;;;1.00;;
3131;SDS011;62090;52.330;9.104;2022-10-16T08:10:14;2.37;;;1.00;;
3131;SDS011;62090;52.330;9.104;2022-10-16T08:12:46;2.80;;;1.10;;
3131;SDS011;62090;52.330;9.104;2022-10-16T08:15:17;3.47;;;1.37;;
3131;SDS011;62090;52.330;9.104;2022-10-16T08:17:56;4.03;;;0.80;;
3131;SDS011;62090;52.330;9.104;2022-10-16T08:20:27;3.33;;;1.13;;
3131;SDS011;62090;52.330;9.104;2022-10-16T08:22:58;1.20;;;1.10;;
3131;SDS011;62090;52.330;9.104;2022-10-16T08:25:29;1.43;;;0.90;;
3131;SDS011;62090;52.330;9.104;2022-10-16T08:27:59;3.13;;;1.33;;
3131;SDS011;62090;52.330;9.104;2022-10-16T08:30:28;10.50;;;1.40;;
3131;SDS011;62090;52.330;9.104;2022-10-16T08:33:01;3.77;;;1.20;;
3131;SDS011;62090;52.330;9.104;2022-10-16T08:35:32;2.33;;;1.00;;
3131;SDS011;62090;52.330;9.104;2022-10-16T08:38:02;3.73;;;1.20;;
3131;SDS011;62090;52.330;9.104;2022-10-16T08:40:33;1.83;;;1.10;;
3131;SDS011;62090;52.330;9.104;2022-10-16T08:43:09;2.70;;;1.27;;
3131;SDS011;62090;52.330;9.104;2022-10-16T08:48:51;4.27;;;1.10;;
3131;SDS011;62090;52.330;9.104;2022-10-16T08:51:23;3.93;;;1.50;;
3131;SDS011;62090;52.330;9.104;2022-10-16T08:53:56;5.60;;;2.47;;
3131;SDS011;62090;52.330;9.104;2022-10-16T08:56:28;3.43;;;1.20;;
3131;SDS011;62090;52.330;9.104;2022-10-16T08:58:59;1.30;;;1.03;;
3131;SDS011;62090;52.330;9.104;2022-10-16T09:01:33;5.23;;;1.27;;
3131;SDS011;62090;52.330;9.104;2022-10-16T09:04:24;10.07;;;1.63;;
3131;SDS011;62090;52.330;9.104;2022-10-16T09:07:12;4.33;;;1.20;;
3131;SDS011;62090;52.330;9.104;2022-10-16T09:09:54;3.43;;;1.43;;
3131;SDS011;62090;52.330;9.104;2022-10-16T09:12:46;2.70;;;0.90;;
3131;SDS011;62090;52.330;9.104;2022-10-16T09:15:25;6.93;;;1.00;;
3131;SDS011;62090;52.330;9.104;2022-10-16T09:18:02;3.53;;;1.13;;
3131;SDS011;62090;52.330;9.104;2022-10-16T09:20:45;6.20;;;1.20;;
3131;SDS011;62090;52.330;9.104;2022-10-16T09:23:22;3.63;;;1.20;;
3131;SDS011;62090;52.330;9.104;2022-10-16T09:25:55;7.23;;;1.03;;
3131;SDS011;62090;52.330;9.104;2022-10-16T09:28:27;2.43;;;1.10;;
3131;SDS011;62090;52.330;9.104;2022-10-16T09:30:58;3.23;;;1.30;;
3131;SDS011;62090;52.330;9.104;2022-10-16T09:33:29;7.77;;;2.23;;
3131;SDS011;62090;52.330;9.104;2022-10-16T09:36:08;5.27;;;2.03;;
3131;SDS011;62090;52.330;9.104;2022-10-16T09:38:39;2.13;;;1.23;;
3131;SDS011;62090;52.330;9.104;2022-10-16T09:41:13;1.80;;;1.00;;
3131;SDS011;62090;52.330;9.104;2022-10-16T09:43:51;4.93;;;1.80;;
3131;SDS011;62090;52.330;9.104;2022-10-16T09:46:25;2.33;;;1.03;;
3131;SDS011;62090;52.330;9.104;2022-10-16T09:48:58;5.80;;;1.40;;
3131;SDS011;62090;52.330;9.104;2022-10-16T09:51:32;3.00;;;1.33;;
3131;SDS011;62090;52.330;9.104;2022-10-16T09:54:12;1.80;;;1.03;;
3131;SDS011;62090;52.330;9.104;2022-10-16T09:56:43;4.27;;;1.40;;
3131;SDS011;62090;52.330;9.104;2022-10-16T09:59:19;4.00;;;1.40;;
3131;SDS011;62090;52.330;9.104;2022-10-16T10:01:53;4.57;;;1.33;;
3131;SDS011;62090;52.330;9.104;2022-10-16T10:04:36;2.50;;;1.00;;
3131;SDS011;62090;52.330;9.104;2022-10-16T10:07:19;4.27;;;1.23;;
3131;SDS011;62090;52.330;9.104;2022-10-16T10:09:56;5.03;;;1.50;;
3131;SDS011;62090;52.330;9.104;2022-10-16T10:12:28;10.70;;;2.07;;
3131;SDS011;62090;52.330;9.104;2022-10-16T10:15:03;8.63;;;1.13;;
3131;SDS011;62090;52.330;9.104;2022-10-16T10:17:44;2.20;;;1.03;;
3131;SDS011;62090;52.330;9.104;2022-10-16T10:20:21;5.20;;;1.23;;
3131;SDS011;62090;52.330;9.104;2022-10-16T10:22:56;5.47;;;1.40;;
3131;SDS011;62090;52.330;9.104;2022-10-16T10:25:42;7.40;;;1.10;;
3131;SDS011;62090;52.330;9.104;2022-10-16T10:28:32;5.60;;;1.20;;
3131;SDS011;62090;52.330;9.104;2022-10-16T10:31:17;4.40;;;1.23;;
3131;SDS011;62090;52.330;9.104;2022-10-16T10:33:55;2.60;;;1.30;;
3131;SDS011;62090;52.330;9.104;2022-10-16T10:36:32;5.07;;;1.37;;
3131;SDS011;62090;52.330;9.104;2022-10-16T10:39:08;2.83;;;1.70;;
3131;SDS011;62090;52.330;9.104;2022-10-16T10:44:48;4.43;;;1.17;;
3131;SDS011;62090;52.330;9.104;2022-10-16T10:47:27;6.00;;;0.90;;
3131;SDS011;62090;52.330;9.104;2022-10-16T10:50:07;3.97;;;1.20;;
3131;SDS011;62090;52.330;9.104;2022-10-16T10:52:45;4.50;;;1.13;;
3131;SDS011;62090;52.330;9.104;2022-10-16T10:55:31;4.33;;;1.50;;
3131;SDS011;62090;52.330;9.104;2022-10-16T10:58:12;9.90;;;1.50;;
3131;SDS011;62090;52.330;9.104;2022-10-16T11:00:58;6.57;;;1.90;;
3131;SDS011;62090;52.330;9.104;2022-10-16T11:03:36;2.00;;;1.30;;
3131;SDS011;62090;52.330;9.104;2022-10-16T11:06:22;5.60;;;1.30;;
3131;SDS011;62090;52.330;9.104;2022-10-16T11:08:57;7.37;;;1.30;;
3131;SDS011;62090;52.330;9.104;2022-10-16T11:11:41;5.10;;;1.10;;
3131;SDS011;62090;52.330;9.104;2022-10-16T11:14:17;4.40;;;1.20;;
3131;SDS011;62090;52.330;9.104;2022-10-16T11:16:52;3.57;;;1.30;;
3131;SDS011;62090;52.330;9.104;2022-10-16T11:19:30;1.37;;;0.90;;
3131;SDS011;62090;52.330;9.104;2022-10-16T11:22:09;4.30;;;1.00;;
3131;SDS011;62090;52.330;9.104;2022-10-16T11:24:45;2.23;;;1.17;;
3131;SDS011;62090;52.330;9.104;2022-10-16T11:27:25;3.27;;;1.10;;
3131;SDS011;62090;52.330;9.104;2022-10-16T11:30:04;10.50;;;2.67;;
3131;SDS011;62090;52.330;9.104;2022-10-16T11:32:47;2.20;;;1.03;;
3131;SDS011;62090;52.330;9.104;2022-10-16T11:35:24;2.27;;;0.90;;
3131;SDS011;62090;52.330;9.104;2022-10-16T11:38:01;4.73;;;1.47;;
3131;SDS011;62090;52.330;9.104;2022-10-16T11:40:40;2.30;;;1.23;;
3131;SDS011;62090;52.330;9.104;2022-10-16T11:43:17;2.10;;;1.10;;
3131;SDS011;62090;52.330;9.104;2022-10-16T11:45:55;7.30;;;1.33;;
3131;SDS011;62090;52.330;9.104;2022-10-16T11:48:30;7.90;;;1.43;;
3131;SDS011;62090;52.330;9.104;2022-10-16T11:51:07;2.77;;;1.00;;
3131;SDS011;62090;52.330;9.104;2022-10-16T11:53:45;3.40;;;1.27;;
3131;SDS011;62090;52.330;9.104;2022-10-16T11:56:18;8.33;;;1.20;;
3131;SDS011;62090;52.330;9.104;2022-10-16T11:58:55;1.77;;;0.90;;
3131;SDS011;62090;52.330;9.104;2022-10-16T12:01:31;3.10;;;0.87;;
3131;SDS011;62090;52.330;9.104;2022-10-16T12:04:15;1.20;;;0.90;;
3131;SDS011;62090;52.330;9.104;2022-10-16T12:06:51;5.20;;;1.20;;
3131;SDS011;62090;52.330;9.104;2022-10-16T12:09:27;3.20;;;1.30;;
3131;SDS011;62090;52.330;9.104;2022-10-16T12:12:00;2.63;;;1.53;;
3131;SDS011;62090;52.330;9.104;2022-10-16T12:14:38;4.87;;;1.13;;
3131;SDS011;62090;52.330;9.104;2022-10-16T12:17:35;2.80;;;1.13;;
3131;SDS011;62090;52.330;9.104;2022-10-16T12:23:05;6.17;;;1.40;;
3131;SDS011;62090;52.330;9.104;2022-10-16T12:25:36;4.80;;;1.20;;
3131;SDS011;62090;52.330;9.104;2022-10-16T12:28:17;7.73;;;1.47;;
3131;SDS011;62090;52.330;9.104;2022-10-16T12:30:58;6.17;;;1.13;;
3131;SDS011;62090;52.330;9.104;2022-10-16T12:33:30;4.30;;;1.73;;
3131;SDS011;62090;52.330;9.104;2022-10-16T12:36:02;4.60;;;1.30;;
3131;SDS011;62090;52.330;9.104;2022-10-16T12:38:36;4.47;;;1.40;;
3131;SDS011;62090;52.330;9.104;2022-10-16T12:41:24;3.63;;;0.97;;
3131;SDS011;62090;52.330;9.104;2022-10-16T12:43:57;4.20;;;0.90;;
3131;SDS011;62090;52.330;9.104;2022-10-16T12:46:39;3.20;;;1.10;;
3131;SDS011;62090;52.330;9.104;2022-10-16T12:52:02;3.57;;;1.00;;
3131;SDS011;62090;52.330;9.104;2022-10-16T12:54:34;2.87;;;1.00;;
3131;SDS011;62090;52.330;9.104;2022-10-16T12:57:17;3.03;;;1.10;;
3131;SDS011;62090;52.330;9.104;2022-10-16T13:00:07;1.50;;;1.00;;
3131;SDS011;62090;52.330;9.104;2022-10-16T13:06:08;4.30;;;1.20;;
3131;SDS011;62090;52.330;9.104;2022-10-16T13:09:04;3.73;;;1.20;;
3131;SDS011;62090;52.330;9.104;2022-10-16T13:11:52;12.63;;;1.80;;
3131;SDS011;62090;52.330;9.104;2022-10-16T13:14:39;8.30;;;1.47;;
3131;SDS011;62090;52.330;9.104;2022-10-16T13:17:24;2.00;;;0.97;;
3131;SDS011;62090;52.330;9.104;2022-10-16T13:20:06;7.43;;;1.50;;
3131;SDS011;62090;52.330;9.104;2022-10-16T13:22:51;3.03;;;1.20;;
3131;SDS011;62090;52.330;9.104;2022-10-16T13:25:34;5.63;;;2.00;;
3131;SDS011;62090;52.330;9.104;2022-10-16T13:28:17;3.70;;;1.63;;
3131;SDS011;62090;52.330;9.104;2022-10-16T13:30:52;3.10;;;1.17;;
3131;SDS011;62090;52.330;9.104;2022-10-16T13:33:27;1.93;;;1.10;;
3131;SDS011;62090;52.330;9.104;2022-10-16T13:36:06;2.60;;;1.17;;
3131;SDS011;62090;52.330;9.104;2022-10-16T13:38:37;3.63;;;1.23;;
3131;SDS011;62090;52.330;9.104;2022-10-16T13:41:13;3.63;;;1.70;;
3131;SDS011;62090;52.330;9.104;2022-10-16T13:43:44;2.63;;;1.57;;
3131;SDS011;62090;52.330;9.104;2022-10-16T13:46:19;3.33;;;1.57;;
3131;SDS011;62090;52.330;9.104;2022-10-16T13:48:56;6.90;;;1.90;;
3131;SDS011;62090;52.330;9.104;2022-10-16T13:51:30;3.70;;;1.10;;
3131;SDS011;62090;52.330;9.104;2022-10-16T13:54:02;3.53;;;1.20;;
3131;SDS011;62090;52.330;9.104;2022-10-16T13:56:32;2.33;;;1.03;;
3131;SDS011;62090;52.330;9.104;2022-10-16T13:59:03;6.83;;;1.17;;
3131;SDS011;62090;52.330;9.104;2022-10-16T14:01:39;2.43;;;1.17;;
3131;SDS011;62090;52.330;9.104;2022-10-16T14:04:11;5.73;;;1.20;;
3131;SDS011;62090;52.330;9.104;2022-10-16T14:06:48;4.30;;;1.20;;
3131;SDS011;62090;52.330;9.104;2022-10-16T14:09:22;4.63;;;1.13;;
3131;SDS011;62090;52.330;9.104;2022-10-16T14:11:55;2.53;;;1.07;;
3131;SDS011;62090;52.330;9.104;2022-10-16T14:14:30;2.03;;;0.90;;
3131;SDS011;62090;52.330;9.104;2022-10-16T14:17:05;1.77;;;0.80;;
3131;SDS011;62090;52.330;9.104;2022-10-16T14:19:35;2.63;;;1.07;;
3131;SDS011;62090;52.330;9.104;2022-10-16T14:22:17;2.10;;;0.90;;
3131;SDS011;62090;52.330;9.104;2022-10-16T14:24:57;3.27;;;0.93;;
3131;SDS011;62090;52.330;9.104;2022-10-16T14:27:29;2.60;;;0.90;;
3131;SDS011;62090;52.330;9.104;2022-10-16T14:30:11;2.83;;;1.20;;
3131;SDS011;62090;52.330;9.104;2022-10-16T14:32:56;3.47;;;1.20;;
3131;SDS011;62090;52.330;9.104;2022-10-16T14:35:29;2.57;;;1.40;;
3131;SDS011;62090;52.330;9.104;2022-10-16T14:38:03;2.50;;;1.10;;
3131;SDS011;62090;52.330;9.104;2022-10-16T14:40:35;1.43;;;0.80;;
3131;SDS011;62090;52.330;9.104;2022-10-16T14:43:14;3.27;;;0.90;;
3131;SDS011;62090;52.330;9.104;2022-10-16T14:45:52;2.40;;;0.90;;
3131;SDS011;62090;52.330;9.104;2022-10-16T14:48:26;5.63;;;1.60;;
3131;SDS011;62090;52.330;9.104;2022-10-16T14:50:56;1.40;;;0.80;;
3131;SDS011;62090;52.330;9.104;2022-10-16T14:53:29;2.70;;;1.10;;
3131;SDS011;62090;52.330;9.104;2022-10-16T14:56:05;2.60;;;0.90;;
3131;SDS011;62090;52.330;9.104;2022-10-16T14:58:36;2.50;;;1.30;;
3131;SDS011;62090;52.330;9.104;2022-10-16T15:01:06;5.67;;;0.97;;
3131;SDS011;62090;52.330;9.104;2022-10-16T15:03:39;2.40;;;1.03;;
3131;SDS011;62090;52.330;9.104;2022-10-16T15:06:09;9.63;;;1.03;;
3131;SDS011;62090;52.330;9.104;2022-10-16T15:08:43;3.87;;;0.97;;
3131;SDS011;62090;52.330;9.104;2022-10-16T15:11:13;4.53;;;1.43;;
3131;SDS011;62090;52.330;9.104;2022-10-16T15:13:45;4.60;;;1.30;;
3131;SDS011;62090;52.330;9.104;2022-10-16T15:16:15;2.37;;;1.30;;
3131;SDS011;62090;52.330;9.104;2022-10-16T15:18:45;3.30;;;1.17;;
3131;SDS011;62090;52.330;9.104;2022-10-16T15:21:19;1.73;;;1.10;;
3131;SDS011;62090;52.330;9.104;2022-10-16T15:23:56;6.00;;;1.30;;
3131;SDS011;62090;52.330;9.104;2022-10-16T15:26:27;4.57;;;1.20;;
3131;SDS011;62090;52.330;9.104;2022-10-16T15:28:58;2.23;;;0.97;;
3131;SDS011;62090;52.330;9.104;2022-10-16T15:31:30;4.20;;;1.10;;
3131;SDS011;62090;52.330;9.104;2022-10-16T15:34:01;3.37;;;1.10;;
3131;SDS011;62090;52.330;9.104;2022-10-16T15:36:33;3.57;;;1.10;;
3131;SDS011;62090;52.330;9.104;2022-10-16T15:39:10;3.17;;;1.43;;
3131;SDS011;62090;52.330;9.104;2022-10-16T15:41:42;10.73;;;2.87;;
3131;SDS011;62090;52.330;9.104;2022-10-16T15:44:17;3.00;;;1.20;;
3131;SDS011;62090;52.330;9.104;2022-10-16T15:46:46;8.17;;;1.40;;
3131;SDS011;62090;52.330;9.104;2022-10-16T15:49:16;3.37;;;1.00;;
3131;SDS011;62090;52.330;9.104;2022-10-16T15:51:48;5.13;;;1.43;;
3131;SDS011;62090;52.330;9.104;2022-10-16T15:54:22;2.40;;;1.10;;
3131;SDS011;62090;52.330;9.104;2022-10-16T15:56:53;2.70;;;1.10;;